Kings Canyon Natl Park (south), California
Current Conditions -  °F | °C
As of 12:56 AM on Sunday 23 Nov 2014 (Local Time) from KBIH Reporting Station
Clear Clear  
Wind Chill: 37°   Ceiling: Unl
Heat Index: 45°   Visibility: 10mi
Dew Point: 22°   Wind: 21mph
Humidity: 40%   Direction: 350°N
Pressure: 30.17"   Gusts: 28mph
Location:  36.8°N, 118.5°W
Report Text: KBIH 230856Z AUTO 35018G24KT 10SM CLR 07/M06 A3017 RMK AO2 PK WND 35027/0825 SLP193 T00721056 51027
Loading
Personal Weather Stations






























Interactive Weather Map New forecast layout! Learn more

10-Day Weather Forecast

Advertisements
Track Severe Weather on mobile